createdAt,value
2017-09-27T02:22:21.444Z,11.6
2017-09-27T04:04:56.577Z,11.4
2017-09-27T04:08:53.026Z,11.4
2017-09-27T04:25:39.374Z,11.6
2017-09-27T04:34:31.624Z,11.6
2017-09-27T04:37:29.440Z,11.6
2017-09-27T04:42:25.524Z,11.5
2017-09-27T04:46:21.724Z,11.6
2017-09-27T04:48:20.284Z,11.6
2017-09-27T04:51:17.974Z,11.6
2017-09-27T04:53:16.032Z,11.6
2017-09-27T04:55:15.262Z,11.6
2017-09-27T04:59:10.956Z,11.5
2017-09-27T05:02:08.649Z,11.5
2017-09-27T05:03:07.574Z,11.5
2017-09-27T05:04:07.373Z,11.5
2017-09-27T05:07:04.816Z,11.6
2017-09-27T05:09:02.758Z,11.6
2017-09-27T05:10:02.319Z,11.6
2017-09-27T05:16:56.559Z,11.6
2017-09-27T05:18:54.620Z,11.6
2017-09-27T05:19:53.790Z,11.6
2017-09-27T05:22:51.360Z,11.6
2017-09-27T05:23:50.702Z,11.7
2017-09-27T05:27:47.525Z,11.7
2017-09-27T05:49:29.284Z,11.7
2017-09-27T05:50:28.459Z,11.7
2017-09-27T05:55:24.795Z,11.7
2017-09-27T05:56:23.213Z,11.7
2017-09-27T05:58:22.407Z,11.7
2017-09-27T05:59:21.090Z,11.7
2017-09-27T06:00:20.262Z,11.7
2017-09-27T06:01:19.437Z,11.7
2017-09-27T06:02:18.607Z,11.7
2017-09-27T06:03:17.655Z,11.7
2017-09-27T06:04:17.082Z,11.7
2017-09-27T06:04:47.818Z,11.7
2017-09-27T06:06:15.419Z,11.7
2017-09-27T06:07:14.854Z,11.7
2017-09-27T06:08:13.652Z,11.8
2017-09-27T06:09:13.088Z,11.8
2017-09-27T06:10:12.013Z,11.8
2017-09-27T06:11:11.180Z,11.8
2017-09-27T06:12:10.735Z,11.8
2017-09-27T06:13:10.154Z,11.8
2017-09-27T06:14:08.828Z,11.9
2017-09-27T06:15:07.999Z,11.9
2017-09-27T06:15:38.491Z,11.9
2017-09-27T06:16:08.977Z,11.9
2017-09-27T06:17:06.647Z,11.9
2017-09-27T06:18:06.323Z,11.9
2017-09-27T06:19:04.868Z,12
2017-09-27T06:20:04.049Z,12
2017-09-27T06:21:03.221Z,12
2017-09-27T06:22:02.649Z,12.1
2017-09-27T06:23:01.316Z,12.1
2017-09-27T06:25:59.474Z,12.2
2017-09-27T06:26:58.012Z,12.2
2017-09-27T06:27:57.570Z,12.2
2017-09-27T06:28:56.741Z,12.2
2017-09-27T06:29:55.657Z,12.2
2017-09-27T06:30:55.598Z,12.3
2017-09-27T06:31:54.009Z,12.3
2017-09-27T06:32:53.688Z,12.3
2017-09-27T06:33:52.741Z,12.4
2017-09-27T06:34:51.921Z,12.4
2017-09-27T06:35:51.094Z,12.4
2017-09-27T06:36:50.269Z,12.4
2017-09-27T06:37:49.689Z,12.5
2017-09-27T06:38:49.186Z,12.5
2017-09-27T06:39:47.976Z,12.5
2017-09-27T06:40:47.273Z,12.6
2017-09-27T06:43:44.466Z,12.7
2017-09-27T06:44:43.891Z,12.7
2017-09-27T06:45:43.057Z,12.7
2017-09-27T06:46:42.356Z,12.8
2017-09-27T06:47:12.595Z,12.8
2017-09-27T06:47:42.824Z,12.8
2017-09-27T06:48:40.359Z,12.9
2017-09-27T06:49:39.657Z,12.9
2017-09-27T06:50:38.850Z,12.9
2017-09-27T06:51:37.896Z,13
2017-09-27T06:52:37.325Z,13
2017-09-27T06:54:35.629Z,13.1
2017-09-27T06:55:06.110Z,13.1
2017-09-27T06:55:36.725Z,13.1
2017-09-27T06:56:07.089Z,13.1
2017-09-27T06:57:32.946Z,13.2
2017-09-27T06:58:03.309Z,13.2
2017-09-27T06:59:31.897Z,13.3
2017-09-27T07:00:30.559Z,13.3
2017-09-27T07:01:29.867Z,13.3
2017-09-27T07:02:29.173Z,13.4
2017-09-27T07:03:28.591Z,13.4
2017-09-27T07:04:27.885Z,13.4
2017-09-27T07:04:58.114Z,13.4
2017-09-27T07:05:28.772Z,13.5
2017-09-27T07:05:59.129Z,13.5
2017-09-27T07:06:29.866Z,13.5
2017-09-27T07:06:59.975Z,13.5
2017-09-27T07:07:30.462Z,13.5
2017-09-27T07:08:24.108Z,13.5
2017-09-27T07:08:54.586Z,13.5
2017-09-27T07:09:24.946Z,13.5
2017-09-27T07:10:22.605Z,13.6
2017-09-27T07:11:21.896Z,13.6
2017-09-27T07:12:21.322Z,13.6
2017-09-27T07:13:20.495Z,13.6
2017-09-27T07:17:17.452Z,13.6
2017-09-27T07:18:16.750Z,13.7
2017-09-27T07:19:15.677Z,13.7
2017-09-27T07:21:13.989Z,13.7
2017-09-27T07:22:13.176Z,13.7
2017-09-27T07:24:11.864Z,13.7
2017-09-27T07:25:10.794Z,13.7
2017-09-27T07:27:09.605Z,13.7
2017-09-27T07:28:08.274Z,13.7
2017-09-27T07:30:07.211Z,13.8
2017-09-27T07:32:05.263Z,13.8
2017-09-27T07:33:04.430Z,13.8
2017-09-27T07:34:03.739Z,13.8
2017-09-27T07:35:02.791Z,13.8
2017-09-27T07:36:02.089Z,13.9
2017-09-27T07:37:01.262Z,13.9
2017-09-27T07:37:31.623Z,13.9
2017-09-27T07:38:02.239Z,13.9
2017-09-27T07:38:32.218Z,13.9
2017-09-27T07:39:02.961Z,13.9
2017-09-27T07:39:33.217Z,13.9
2017-09-27T07:40:58.061Z,14
2017-09-27T07:42:56.621Z,14
2017-09-27T07:44:55.437Z,14.1
2017-09-27T07:45:54.368Z,14.1
2017-09-27T07:46:53.548Z,14.1
2017-09-27T07:47:52.719Z,14.2
2017-09-27T07:48:52.134Z,14.2
2017-09-27T07:49:51.429Z,14.2
2017-09-27T07:50:50.737Z,14.2
2017-09-27T07:51:49.531Z,14.2
2017-09-27T07:52:48.832Z,14.2
2017-09-27T07:53:48.128Z,14.3
2017-09-27T07:54:47.440Z,14.3
2017-09-27T07:55:46.489Z,14.3
2017-09-27T07:58:43.929Z,14.4
2017-09-27T07:59:43.102Z,14.4
2017-09-27T08:00:42.269Z,14.4
2017-09-27T08:01:41.569Z,14.5
2017-09-27T08:02:40.871Z,14.5
2017-09-27T08:03:40.167Z,14.5
2017-09-27T08:05:38.973Z,14.6
2017-09-27T08:06:37.768Z,14.6
2017-09-27T08:09:35.962Z,14.7
2017-09-27T08:10:34.773Z,14.8
2017-09-27T08:12:33.502Z,14.8
2017-09-27T08:13:32.803Z,14.9
2017-09-27T08:15:30.980Z,14.9
2017-09-27T08:16:30.276Z,15
2017-09-27T08:17:29.323Z,15
2017-09-27T08:18:28.372Z,15
2017-09-27T08:19:27.812Z,15
2017-09-27T08:20:27.115Z,15.1
2017-09-27T08:22:25.924Z,15.1
2017-09-27T08:23:24.472Z,15.1
2017-09-27T08:24:24.025Z,15.2
2017-09-27T08:26:22.841Z,15.3
2017-09-27T08:27:21.642Z,15.3
2017-09-27T08:28:20.550Z,15.3
2017-09-27T08:30:19.631Z,15.5
2017-09-27T08:31:18.926Z,15.5
2017-09-27T08:33:17.111Z,15.7
2017-09-27T08:34:16.164Z,15.7
2017-09-27T08:35:16.220Z,15.7
2017-09-27T08:37:14.143Z,15.8
2017-09-27T08:38:13.442Z,15.8
2017-09-27T08:40:11.755Z,15.9
2017-09-27T08:41:10.929Z,15.9
2017-09-27T08:43:09.486Z,16
2017-09-27T08:49:05.208Z,16.1
2017-09-27T08:53:02.542Z,16.1
2017-09-27T08:55:59.850Z,16.1
2017-09-27T08:56:59.277Z,16.1
2017-09-27T08:57:58.581Z,16.2
2017-09-27T09:14:45.794Z,16.4
2017-09-27T09:15:16.284Z,16.4
2017-09-27T09:28:35.140Z,16.6
2017-09-27T09:34:31.372Z,16.6
2017-09-27T09:35:30.171Z,16.6
2017-09-27T10:00:12.090Z,16.9
2017-09-27T10:01:11.389Z,16.9
2017-09-27T10:07:07.243Z,17.1
2017-09-27T10:08:06.292Z,17.1
2017-09-27T10:10:04.862Z,17.2
2017-09-27T10:11:04.024Z,17.2
2017-09-27T10:12:03.071Z,17.2
2017-09-27T10:13:03.000Z,17.3
2017-09-27T10:14:02.048Z,17.3
2017-09-27T10:14:32.788Z,17.3
2017-09-27T10:15:02.898Z,17.3
2017-09-27T10:16:00.690Z,17.4
2017-09-27T10:17:00.142Z,17.4
2017-09-27T10:17:58.814Z,17.4
2017-09-27T10:18:58.737Z,17.4
2017-09-27T10:19:58.168Z,17.4
2017-09-27T10:20:56.969Z,17.5
2017-09-27T10:21:56.143Z,17.5
2017-09-27T10:22:55.321Z,17.5
2017-09-27T10:23:54.999Z,17.5
2017-09-27T10:24:54.165Z,17.6
2017-09-27T10:25:25.036Z,17.6
2017-09-27T10:25:55.145Z,17.6
2017-09-27T10:27:52.025Z,17.6
2017-09-27T10:28:51.584Z,17.6
2017-09-27T10:29:50.763Z,17.6
2017-09-27T10:30:49.808Z,17.7
2017-09-27T10:31:49.103Z,17.7
2017-09-27T10:33:47.663Z,17.7
2017-09-27T10:35:46.346Z,17.8
2017-09-27T10:40:42.681Z,17.8
2017-09-27T10:42:41.373Z,17.8
2017-09-27T10:44:39.934Z,17.8
2017-09-27T10:45:39.106Z,17.8
2017-09-27T10:47:38.060Z,17.8
2017-09-27T10:50:35.505Z,17.9
2017-09-27T10:51:34.802Z,17.9
2017-09-27T10:52:33.974Z,17.9
2017-09-27T10:57:30.813Z,17.8
2017-09-27T10:58:01.042Z,17.8
2017-09-27T10:59:29.528Z,17.9
2017-09-27T11:06:24.973Z,17.9
2017-09-27T11:07:24.080Z,17.9
2017-09-27T11:07:54.398Z,17.9
2017-09-27T11:13:19.581Z,17.8
2017-09-27T11:14:18.999Z,17.9
2017-09-27T11:17:16.569Z,17.9
2017-09-27T11:18:15.870Z,17.9
2017-09-27T11:19:15.302Z,17.9
2017-09-27T11:20:14.346Z,17.9
2017-09-27T11:25:11.454Z,17.9
2017-09-27T11:31:07.300Z,17.9
2017-09-27T11:33:05.480Z,17.9
2017-09-27T11:36:03.545Z,18
2017-09-27T11:44:56.666Z,18.1
2017-09-27T11:45:56.212Z,18.2
2017-09-27T11:52:51.823Z,18.4
2017-09-27T11:57:48.288Z,18.4
2017-09-27T11:59:47.363Z,18.5
2017-09-27T12:00:46.148Z,18.5
2017-09-27T12:07:41.550Z,18.6
2017-09-27T12:09:40.115Z,18.6
2017-09-27T12:16:35.217Z,18.7
2017-09-27T12:22:31.072Z,18.7
2017-09-27T12:27:27.927Z,18.9
2017-09-27T12:29:26.233Z,18.9
2017-09-27T12:30:25.534Z,19
2017-09-27T12:34:23.115Z,19.1
2017-09-27T12:46:14.321Z,19.4
2017-09-27T12:46:44.937Z,19.4
2017-09-27T12:47:15.190Z,19.4
2017-09-27T12:47:45.311Z,19.4
2017-09-27T12:49:12.791Z,19.4
2017-09-27T12:53:09.992Z,19.3
2017-09-27T12:54:09.176Z,19.3
2017-09-27T12:56:08.137Z,19.2
2017-09-27T12:57:07.317Z,19.2
2017-09-27T12:58:06.615Z,19.2
2017-09-27T13:01:04.812Z,19.1
2017-09-27T13:02:04.375Z,19.1
2017-09-27T13:03:03.316Z,19.1
2017-09-27T13:04:02.488Z,19.1
2017-09-27T13:05:01.784Z,19.1
2017-09-27T13:07:00.471Z,19.1
2017-09-27T13:07:59.891Z,19.1
2017-09-27T13:08:59.065Z,19.1
2017-09-27T13:09:58.236Z,19.1
2017-09-27T13:11:57.421Z,19.1
2017-09-27T13:14:55.365Z,19.2
2017-09-27T13:15:54.665Z,19.2
2017-09-27T13:16:53.969Z,19.2
2017-09-27T13:17:53.139Z,19.2
2017-09-27T13:18:52.944Z,19.3
2017-09-27T13:19:52.376Z,19.3
2017-09-27T13:20:51.298Z,19.3
2017-09-27T13:22:50.233Z,19.4
2017-09-27T13:23:49.287Z,19.5
2017-09-27T13:26:47.241Z,19.9
2017-09-27T13:28:45.798Z,20.1
2017-09-27T13:29:45.356Z,20.2
2017-09-27T13:30:44.786Z,20.3
2017-09-27T13:31:43.713Z,20.4
2017-09-27T13:32:14.326Z,20.4
2017-09-27T13:32:44.815Z,20.4
2017-09-27T13:33:42.357Z,20.5
2017-09-27T13:34:42.039Z,20.6
2017-09-27T13:35:41.468Z,20.6
2017-09-27T13:36:40.651Z,20.7
2017-09-27T13:37:39.948Z,20.8
2017-09-27T13:38:39.369Z,20.7
2017-09-27T13:39:38.545Z,20.8
2017-09-27T13:40:38.224Z,20.8
2017-09-27T13:43:36.413Z,20.6
2017-09-27T13:44:35.621Z,20.6
2017-09-27T13:45:35.044Z,20.6
2017-09-27T13:47:33.984Z,20.7
2017-09-27T13:52:30.337Z,20.9
2017-09-27T13:53:29.636Z,20.9
2017-09-27T13:54:28.938Z,20.9
2017-09-27T13:55:27.992Z,21
2017-09-27T13:56:27.800Z,21
2017-09-27T13:57:27.094Z,21
2017-09-27T13:58:26.140Z,21
2017-09-27T14:04:22.496Z,21.2
2017-09-27T14:05:21.674Z,21.2
2017-09-27T14:06:21.473Z,21.3
2017-09-27T14:07:20.655Z,21.4
2017-09-27T14:08:20.079Z,21.4
2017-09-27T14:09:19.514Z,21.4
2017-09-27T14:10:18.561Z,21.3
2017-09-27T14:11:17.990Z,21.3
2017-09-27T14:12:17.416Z,21.2
2017-09-27T14:15:15.788Z,21
2017-09-27T14:19:13.373Z,20.9
2017-09-27T14:22:11.576Z,20.9
2017-09-27T14:26:08.412Z,21
2017-09-27T14:30:05.866Z,20.9
2017-09-27T14:34:03.323Z,20.9
2017-09-27T15:22:32.811Z,19.8
2017-09-27T16:40:41.660Z,17.8
2017-09-27T16:41:40.577Z,17.7
2017-09-27T16:48:35.949Z,17.5
2017-09-27T16:49:35.756Z,17.5
2017-09-27T16:50:35.299Z,17.4
2017-09-27T16:51:34.096Z,17.4
2017-09-27T16:53:32.652Z,17.4
2017-09-27T16:54:32.214Z,17.4
2017-09-27T16:55:31.640Z,17.3
2017-09-27T16:57:30.591Z,17.2
2017-09-27T17:01:27.297Z,17.1
2017-09-27T17:03:25.978Z,17
2017-09-27T17:09:22.221Z,16.9
2017-09-27T17:12:19.785Z,16.8
2017-09-27T17:13:18.963Z,16.8
2017-09-27T17:15:18.405Z,16.8
2017-09-27T17:16:17.200Z,16.7
2017-09-27T17:17:16.624Z,16.7
2017-09-27T17:18:15.924Z,16.7
2017-09-27T17:19:15.097Z,16.7
2017-09-27T17:20:14.528Z,16.7
2017-09-27T17:21:13.698Z,16.7
2017-09-27T17:22:13.005Z,16.6
2017-09-27T17:23:12.305Z,16.6
2017-09-27T17:24:11.737Z,16.6
2017-09-27T17:25:10.908Z,16.5
2017-09-27T17:26:09.964Z,16.5
2017-09-27T17:27:09.656Z,16.5
2017-09-27T17:28:09.211Z,16.5
2017-09-27T17:29:07.930Z,16.5
2017-09-27T17:30:07.822Z,16.5
2017-09-27T17:31:06.754Z,16.4
2017-09-27T17:32:05.941Z,16.4
2017-09-27T17:33:05.248Z,16.4
2017-09-27T17:34:04.675Z,16.4
2017-09-27T17:35:03.974Z,16.4
2017-09-27T17:37:02.906Z,16.4
2017-09-27T17:38:02.086Z,16.3
2017-09-27T17:39:01.134Z,16.3
2017-09-27T17:40:00.434Z,16.3
2017-09-27T17:40:59.732Z,16.3
2017-09-27T17:41:59.330Z,16.3
2017-09-27T17:42:58.378Z,16.3
2017-09-27T17:43:57.548Z,16.2
2017-09-27T17:44:56.844Z,16.2
2017-09-27T17:45:56.150Z,16.2
2017-09-27T17:46:55.583Z,16.2
2017-09-27T17:47:55.013Z,16.2
2017-09-27T17:48:54.058Z,16.2
2017-09-27T17:49:53.354Z,16.2
2017-09-27T17:50:52.531Z,16.1
2017-09-27T17:51:52.074Z,16.1
2017-09-27T17:52:51.497Z,16.1
2017-09-27T17:53:50.669Z,16.1
2017-09-27T17:54:49.967Z,16.1
2017-09-27T17:55:49.522Z,16
2017-09-27T17:56:48.822Z,16
2017-09-27T17:57:47.489Z,16
2017-09-27T17:58:46.660Z,16
2017-09-27T18:00:45.599Z,16
2017-09-27T18:02:44.151Z,15.9
2017-09-27T18:04:42.707Z,15.9
2017-09-27T18:05:42.265Z,15.9
2017-09-27T18:06:41.566Z,15.9
2017-09-27T18:07:41.117Z,15.9
2017-09-27T18:08:40.044Z,15.9
2017-09-27T18:09:39.475Z,15.8
2017-09-27T18:10:38.772Z,15.8
2017-09-27T18:11:37.948Z,15.8
2017-09-27T18:12:37.120Z,15.8
2017-09-27T18:14:35.941Z,15.8
2017-09-27T18:15:34.738Z,15.7
2017-09-27T18:17:33.301Z,15.7
2017-09-27T18:18:32.730Z,15.7
2017-09-27T18:19:32.028Z,15.7
2017-09-27T18:20:31.081Z,15.7
2017-09-27T18:21:30.384Z,15.7
2017-09-27T18:24:28.593Z,15.7
2017-09-27T18:25:28.022Z,15.7
2017-09-27T18:27:25.950Z,15.6
2017-09-27T18:28:25.742Z,15.6
2017-09-27T18:31:23.193Z,15.6
2017-09-27T18:32:22.999Z,15.6
2017-09-27T18:35:20.323Z,15.6
2017-09-27T18:39:18.042Z,15.5
2017-09-27T18:47:11.922Z,15.5
2017-09-27T19:49:25.430Z,15.3
2017-09-27T19:50:25.370Z,15.3
2017-09-27T19:52:23.297Z,15.3
2017-09-27T20:19:03.650Z,15.1
2017-09-27T20:20:02.961Z,15.1
2017-09-27T20:23:59.798Z,15
2017-09-27T20:24:59.479Z,15
2017-09-27T20:28:56.441Z,15
2017-09-27T20:37:49.701Z,14.9
2017-09-27T20:38:48.998Z,14.9
2017-09-27T20:41:46.459Z,14.9
2017-09-27T20:45:43.665Z,14.9
2017-09-27T20:50:40.014Z,14.8
2017-09-27T20:57:34.503Z,14.8
2017-09-27T21:03:30.240Z,14.8
2017-09-27T21:04:29.424Z,14.8
2017-09-27T21:17:19.341Z,14.7
2017-09-27T21:18:19.150Z,14.7
2017-09-27T21:19:18.579Z,14.7
2017-09-27T21:20:17.634Z,14.7
2017-09-27T21:21:17.058Z,14.7
2017-09-27T21:23:15.238Z,14.6
2017-09-27T21:24:14.160Z,14.6
2017-09-27T21:27:12.245Z,14.6
2017-09-27T21:28:11.807Z,14.6
2017-09-27T21:30:09.861Z,14.5
2017-09-27T21:32:08.541Z,14.5
2017-09-27T21:33:07.835Z,14.5
2017-09-27T21:34:06.882Z,14.4
2017-09-27T21:35:06.173Z,14.4
2017-09-27T21:36:05.476Z,14.4
2017-09-27T21:37:04.893Z,14.4
2017-09-27T21:40:02.583Z,14.4
2017-09-27T21:41:02.057Z,14.4
2017-09-27T21:42:00.864Z,14.4
2017-09-27T21:44:58.937Z,14.4
2017-09-27T21:45:58.111Z,14.4
2017-09-27T21:47:56.165Z,14.3
2017-09-27T21:48:56.096Z,14.3
2017-09-27T21:49:55.013Z,14.3
2017-09-27T21:50:54.442Z,14.3
2017-09-27T21:52:52.496Z,14.3
2017-09-27T21:53:52.288Z,14.3
2017-09-27T21:54:51.083Z,14.3
2017-09-27T21:55:50.258Z,14.3
2017-09-27T21:56:49.556Z,14.2
2017-09-27T21:57:48.985Z,14.2
2017-09-27T21:58:48.156Z,14.2
2017-09-27T22:00:46.959Z,14.2
2017-09-27T22:01:45.757Z,14.2
2017-09-27T22:02:44.928Z,14.2
2017-09-27T22:05:43.008Z,14.1
2017-09-27T22:06:42.313Z,14.1
2017-09-27T22:07:41.497Z,14.1
2017-09-27T22:09:39.682Z,14.1
2017-09-27T22:10:39.371Z,14.1
2017-09-27T22:11:38.672Z,14.1
2017-09-27T22:13:36.991Z,14
2017-09-27T22:15:35.696Z,14
2017-09-27T22:16:34.639Z,14
2017-09-27T22:17:34.224Z,14
2017-09-27T22:18:32.895Z,14
2017-09-27T22:19:32.074Z,13.9
2017-09-27T22:21:30.651Z,13.9
2017-09-27T22:22:29.828Z,13.9
2017-09-27T22:23:29.385Z,13.9
2017-09-27T22:24:28.599Z,13.9
2017-09-27T22:24:59.107Z,13.9
2017-09-27T22:25:29.849Z,13.9
2017-09-27T22:26:00.092Z,13.9
2017-09-27T22:26:30.457Z,13.9
2017-09-27T22:27:25.992Z,13.9
2017-09-27T22:28:25.293Z,13.8
2017-09-27T22:29:24.604Z,13.8
2017-09-27T22:31:23.302Z,13.8
2017-09-27T22:32:22.109Z,13.8
2017-09-27T22:33:21.545Z,13.8
2017-09-27T22:34:21.152Z,13.8
2017-09-27T22:34:51.519Z,13.8
2017-09-27T22:36:19.634Z,13.8
2017-09-27T22:36:49.623Z,13.8
2017-09-27T22:37:20.236Z,13.8
2017-09-27T22:37:50.098Z,13.8
2017-09-27T22:38:20.840Z,13.7
2017-09-27T22:38:51.079Z,13.7
2017-09-27T22:40:15.934Z,13.7
2017-09-27T22:41:15.490Z,13.7
2017-09-27T22:42:14.920Z,13.7
2017-09-27T22:43:14.095Z,13.7
2017-09-27T22:44:13.269Z,13.7
2017-09-27T22:45:12.573Z,13.7
2017-09-27T22:46:11.868Z,13.7
2017-09-27T22:47:10.798Z,13.6
2017-09-27T22:49:09.369Z,13.6
2017-09-27T22:50:08.801Z,13.6
2017-09-27T22:51:07.979Z,13.6
2017-09-27T22:52:06.784Z,13.6
2017-09-27T22:53:06.220Z,13.6
2017-09-27T22:54:05.394Z,13.6
2017-09-27T22:55:04.825Z,13.6
2017-09-27T22:56:04.386Z,13.6
2017-09-27T22:58:02.575Z,13.6
2017-09-27T22:59:01.754Z,13.5
2017-09-27T23:00:01.070Z,13.5
2017-09-27T23:01:59.128Z,13.5
2017-09-27T23:03:57.821Z,13.5
2017-09-27T23:05:56.397Z,13.5
2017-09-27T23:06:27.149Z,13.5
2017-09-27T23:06:57.145Z,13.5
2017-09-27T23:08:53.946Z,13.5
2017-09-27T23:09:53.255Z,13.5
2017-09-27T23:10:52.689Z,13.4
2017-09-27T23:11:51.739Z,13.4
2017-09-27T23:12:50.920Z,13.4
2017-09-27T23:13:50.227Z,13.4
2017-09-27T23:14:49.405Z,13.4
2017-09-27T23:15:48.583Z,13.4
2017-09-27T23:16:48.012Z,13.4
2017-09-27T23:17:18.377Z,13.4
2017-09-27T23:20:44.503Z,13.3
2017-09-27T23:21:43.686Z,13.3
2017-09-27T23:22:43.366Z,13.3
2017-09-27T23:23:42.166Z,13.3
2017-09-27T23:25:41.117Z,13.3
2017-09-27T23:27:39.556Z,13.3
2017-09-27T23:28:38.229Z,13.3
2017-09-27T23:31:36.059Z,13.2
2017-09-27T23:32:35.617Z,13.2
2017-09-27T23:33:34.669Z,13.2
2017-09-27T23:34:34.226Z,13.2
2017-09-27T23:35:33.162Z,13.2
2017-09-27T23:36:32.598Z,13.2
2017-09-27T23:37:31.680Z,13.2
2017-09-27T23:38:30.859Z,13.2
2017-09-27T23:39:30.424Z,13.2
2017-09-27T23:40:29.094Z,13.1
2017-09-27T23:41:28.401Z,13.1
2017-09-27T23:43:26.972Z,13.1
2017-09-27T23:44:26.400Z,13.1
2017-09-27T23:45:25.078Z,13.1
2017-09-27T23:46:24.390Z,13.1
2017-09-27T23:47:23.813Z,13.1
2017-09-27T23:50:21.262Z,13.1
2017-09-27T23:51:20.452Z,13
2017-09-27T23:52:19.377Z,13
2017-09-27T23:53:19.190Z,13
2017-09-27T23:54:18.118Z,13
2017-09-27T23:55:17.546Z,13
2017-09-27T23:57:15.858Z,13
